Time;durP1;ratioP1;P1;durP2;ratioP2;P2;SDS_P1;SDS_P2;PMS_P1;PMS_P2;Temp;Humidity;BMP_temperature;BMP_pressure;BME280_temperature;BME280_humidity;BME280_pressure;Samples;Min_cycle;Max_cycle;Signal;HPM_P1;HPM_P2
2021/09/09 00:00:22;;;;;;;20.40;18.30;;;;;;;15.33;60.35;100786.77;116092;1192;22922;-76
2021/09/09 00:03:04;;;;;;;19.70;17.60;;;;;;;15.25;60.49;100784.72;116288;1195;21991;-77
2021/09/09 00:05:35;;;;;;;20.90;18.70;;;;;;;15.20;60.72;100781.34;116119;1195;22005;-78
2021/09/09 00:08:05;;;;;;;20.20;18.10;;;;;;;15.15;60.79;100782.10;116163;1198;21883;-76
2021/09/09 00:10:34;;;;;;;20.90;18.20;;;;;;;15.10;60.81;100787.52;116104;1195;23493;-77
2021/09/09 00:13:04;;;;;;;22.60;19.90;;;;;;;15.04;61.04;100789.96;116377;1192;21899;-77
2021/09/09 00:15:36;;;;;;;21.80;19.10;;;;;;;15.00;61.36;100789.79;116092;1197;21913;-76
2021/09/09 00:18:06;;;;;;;23.20;19.30;;;;;;;14.98;61.62;100785.95;116162;1192;21886;-77
2021/09/09 00:20:36;;;;;;;23.10;18.50;;;;;;;14.97;61.81;100784.09;116312;1197;21898;-77
2021/09/09 00:23:06;;;;;;;24.10;18.70;;;;;;;14.98;61.88;100787.04;116557;1192;23565;-77
2021/09/09 00:25:36;;;;;;;25.70;20.50;;;;;;;14.98;62.18;100783.11;116331;1192;21896;-76
2021/09/09 00:28:06;;;;;;;24.00;19.60;;;;;;;14.98;62.28;100784.19;116370;1189;21893;-77
2021/09/09 00:30:35;;;;;;;23.40;19.60;;;;;;;14.97;62.22;100782.58;116405;1194;23462;-77
2021/09/09 00:33:08;;;;;;;27.00;20.30;;;;;;;14.94;62.36;100784.10;116392;1193;22126;-77
2021/09/09 00:35:38;;;;;;;23.80;21.30;;;;;;;14.91;62.40;100787.30;116274;1195;22934;-77
2021/09/09 00:38:08;;;;;;;24.70;20.40;;;;;;;14.88;62.38;100788.44;116434;1194;23446;-77
2021/09/09 00:40:37;;;;;;;23.80;20.30;;;;;;;14.82;62.56;100789.63;116701;1190;22912;-77
2021/09/09 00:43:06;;;;;;;25.20;22.00;;;;;;;14.80;62.65;100790.30;116374;1195;21883;-77
2021/09/09 00:45:36;;;;;;;25.40;21.10;;;;;;;14.76;62.83;100789.64;116331;1195;21920;-77
2021/09/09 00:48:06;;;;;;;27.40;21.70;;;;;;;14.73;62.96;100786.89;115958;1198;24400;-77
2021/09/09 00:50:35;;;;;;;23.10;20.50;;;;;;;14.69;63.06;100785.29;116362;1198;21913;-77
2021/09/09 00:53:07;;;;;;;32.20;23.60;;;;;;;14.64;63.24;100783.56;116046;1197;21889;-77
2021/09/09 00:55:37;;;;;;;24.30;21.50;;;;;;;14.61;63.50;100784.44;115780;1199;22921;-77
2021/09/09 00:58:11;;;;;;;26.20;21.20;;;;;;;14.55;63.54;100786.98;115907;1197;22855;-78
2021/09/09 01:00:40;;;;;;;28.10;22.80;;;;;;;14.52;63.79;100784.60;116135;1196;23872;-77
2021/09/09 01:03:10;;;;;;;27.10;20.80;;;;;;;14.50;63.96;100785.90;116351;1195;21919;-77
2021/09/09 01:05:39;;;;;;;31.20;22.70;;;;;;;14.48;64.04;100786.15;116308;1194;22662;-77
2021/09/09 01:08:09;;;;;;;24.40;21.80;;;;;;;14.45;64.27;100781.66;116326;1197;21915;-76
2021/09/09 01:10:39;;;;;;;29.60;22.80;;;;;;;14.43;64.46;100782.30;116369;1195;22621;-77
2021/09/09 01:13:10;;;;;;;27.10;22.90;;;;;;;14.40;64.40;100786.16;116463;1193;21880;-76
2021/09/09 01:15:42;;;;;;;27.70;24.00;;;;;;;14.36;64.54;100782.34;116619;1192;21882;-77
2021/09/09 01:18:14;;;;;;;27.70;23.30;;;;;;;14.33;64.76;100783.96;116657;1193;23454;-76
2021/09/09 01:20:44;;;;;;;31.30;23.90;;;;;;;14.30;64.74;100779.91;116666;1189;23443;-77
2021/09/09 01:23:13;;;;;;;26.50;21.40;;;;;;;14.27;64.82;100780.69;116390;1193;21967;-76
2021/09/09 01:25:42;;;;;;;25.40;22.70;;;;;;;14.23;64.84;100782.34;116245;1195;22722;-76
2021/09/09 01:28:11;;;;;;;24.40;21.90;;;;;;;14.19;65.03;100780.16;116332;1195;21930;-76
2021/09/09 01:30:40;;;;;;;29.30;24.10;;;;;;;14.14;65.04;100781.10;116187;1192;22946;-77
2021/09/09 01:33:09;;;;;;;25.60;22.70;;;;;;;14.09;65.17;100782.13;116405;1192;21931;-77
2021/09/09 01:35:39;;;;;;;24.90;22.20;;;;;;;14.05;65.39;100780.31;116056;1195;22637;-76
2021/09/09 01:38:22;;;;;;;23.90;21.30;;;;;;;14.04;65.79;100781.77;116014;1198;21914;-77
2021/09/09 01:40:51;;;;;;;27.60;24.70;;;;;;;13.99;65.78;100782.16;115996;1197;22672;-77
2021/09/09 01:43:20;;;;;;;30.50;24.40;;;;;;;13.93;65.76;100781.58;115965;1198;22941;-76
2021/09/09 01:45:49;;;;;;;27.50;23.80;;;;;;;13.88;65.98;100775.38;115732;1201;21921;-76
2021/09/09 01:48:19;;;;;;;27.70;24.00;;;;;;;13.86;66.35;100777.30;115851;1198;21907;-76
2021/09/09 01:50:48;;;;;;;26.50;23.60;;;;;;;13.84;66.45;100783.27;115166;1203;21901;-77
2021/09/09 01:53:18;;;;;;;27.90;24.30;;;;;;;13.82;66.38;100782.27;115269;1202;21891;-78
2021/09/09 01:55:47;;;;;;;26.90;23.80;;;;;;;13.79;66.45;100780.81;115330;1197;22252;-77
2021/09/09 01:58:16;;;;;;;25.50;22.80;;;;;;;13.73;66.52;100778.30;115325;1202;21898;-78
2021/09/09 02:00:45;;;;;;;27.60;23.20;;;;;;;13.69;66.68;100781.77;115694;1200;22927;-78
2021/09/09 02:03:15;;;;;;;27.50;24.40;;;;;;;13.62;66.84;100779.46;115769;1199;22178;-77
2021/09/09 02:05:44;;;;;;;27.70;24.80;;;;;;;13.57;66.94;100778.73;116140;1192;21925;-77
2021/09/09 02:08:14;;;;;;;28.00;25.00;;;;;;;13.53;67.15;100778.30;116001;1196;21905;-78
2021/09/09 02:10:44;;;;;;;28.50;24.90;;;;;;;13.50;67.26;100777.23;116224;1194;21908;-77
2021/09/09 02:13:15;;;;;;;26.90;24.10;;;;;;;13.49;67.36;100774.89;116194;1194;23512;-78
2021/09/09 02:15:44;;;;;;;25.20;22.40;;;;;;;13.46;67.60;100775.89;116589;1187;21895;-77
2021/09/09 02:18:13;;;;;;;26.40;23.80;;;;;;;13.42;67.50;100776.55;116630;1192;22431;-77
2021/09/09 02:20:42;;;;;;;26.60;23.70;;;;;;;13.36;67.44;100777.52;116679;1190;21988;-77
2021/09/09 02:23:12;;;;;;;25.00;22.40;;;;;;;13.33;67.81;100772.40;116580;1192;21883;-77
2021/09/09 02:25:41;;;;;;;26.00;23.50;;;;;;;13.31;67.98;100769.83;116603;1193;22953;-77
2021/09/09 02:28:10;;;;;;;27.50;24.30;;;;;;;13.31;68.01;100770.89;116369;1192;22918;-77
2021/09/09 02:30:41;;;;;;;26.80;24.10;;;;;;;13.30;68.06;100769.20;116419;1194;21894;-77
2021/09/09 02:33:11;;;;;;;25.90;23.10;;;;;;;13.28;68.06;100770.01;116360;1195;22059;-77
2021/09/09 02:35:40;;;;;;;30.00;24.10;;;;;;;13.25;68.02;100768.92;116334;1195;23560;-77
2021/09/09 02:38:10;;;;;;;29.30;23.80;;;;;;;13.24;68.29;100767.63;116409;1194;21884;-77
2021/09/09 02:40:39;;;;;;;26.80;23.90;;;;;;;13.23;68.25;100762.62;116385;1193;22930;-77
2021/09/09 02:43:08;;;;;;;27.70;23.40;;;;;;;13.20;68.10;100761.17;116338;1193;23549;-77
2021/09/09 02:45:38;;;;;;;28.00;23.50;;;;;;;13.17;68.20;100757.73;116426;1191;24294;-77
2021/09/09 02:48:07;;;;;;;26.60;23.50;;;;;;;13.16;68.29;100758.17;116542;1192;22932;-78
2021/09/09 02:50:36;;;;;;;26.40;23.20;;;;;;;13.15;68.33;100754.11;116654;1192;24237;-77
2021/09/09 02:53:05;;;;;;;25.70;23.00;;;;;;;13.12;68.41;100750.38;116633;1193;21902;-78
2021/09/09 02:55:35;;;;;;;26.40;23.60;;;;;;;13.11;68.36;100752.63;116597;1193;23538;-77
2021/09/09 02:58:04;;;;;;;26.20;23.50;;;;;;;13.09;68.44;100748.94;116507;1191;24347;-78
2021/09/09 03:00:33;;;;;;;24.80;22.10;;;;;;;13.09;68.62;100747.84;116369;1196;21884;-77
2021/09/09 03:03:03;;;;;;;25.90;23.20;;;;;;;13.11;68.75;100746.10;116202;1195;22929;-77
2021/09/09 03:05:32;;;;;;;25.60;23.00;;;;;;;13.12;68.77;100747.75;116443;1195;23542;-77
2021/09/09 03:08:03;;;;;;;26.40;23.80;;;;;;;13.13;68.74;100747.09;116449;1195;23688;-77
2021/09/09 03:10:35;;;;;;;26.60;23.80;;;;;;;13.13;68.63;100748.34;116138;1195;23410;-77
2021/09/09 03:13:04;;;;;;;27.70;24.80;;;;;;;13.11;68.69;100742.36;116357;1196;21896;-77
2021/09/09 03:15:33;;;;;;;28.20;25.20;;;;;;;13.11;68.66;100743.45;116354;1196;21916;-77
2021/09/09 03:18:03;;;;;;;27.30;24.50;;;;;;;13.10;68.60;100745.81;116290;1194;22851;-76
2021/09/09 03:20:32;;;;;;;26.20;23.50;;;;;;;13.09;68.62;100743.49;116456;1189;24150;-77
2021/09/09 03:23:01;;;;;;;27.80;24.90;;;;;;;13.08;68.73;100743.40;116315;1190;21862;-77
2021/09/09 03:25:30;;;;;;;30.70;24.40;;;;;;;13.07;68.78;100741.73;116365;1196;22274;-77
2021/09/09 03:28:00;;;;;;;28.00;24.40;;;;;;;13.05;68.78;100741.09;116332;1192;23450;-78
2021/09/09 03:30:30;;;;;;;26.10;23.40;;;;;;;13.02;68.63;100742.54;116003;1198;21907;-76
2021/09/09 03:32:59;;;;;;;28.20;22.90;;;;;;;12.99;68.73;100743.88;115951;1198;21965;-77
2021/09/09 03:35:29;;;;;;;28.00;24.00;;;;;;;12.98;68.89;100745.64;115842;1198;21948;-76
2021/09/09 03:37:58;;;;;;;28.10;25.10;;;;;;;12.97;69.03;100741.67;115749;1200;21911;-77
2021/09/09 03:40:27;;;;;;;27.20;24.50;;;;;;;12.95;68.96;100741.48;116130;1197;21921;-76
2021/09/09 03:42:57;;;;;;;27.00;24.20;;;;;;;12.94;69.10;100741.25;116200;1195;22950;-77
2021/09/09 03:45:27;;;;;;;27.20;23.90;;;;;;;12.93;69.16;100742.48;116279;1195;22925;-77
2021/09/09 03:47:56;;;;;;;25.60;23.10;;;;;;;12.91;69.03;100744.61;116142;1196;23629;-77
2021/09/09 03:50:26;;;;;;;26.60;23.90;;;;;;;12.89;68.93;100743.47;116406;1195;21950;-77
2021/09/09 03:52:55;;;;;;;26.50;23.70;;;;;;;12.86;69.01;100741.78;116494;1191;21882;-78
2021/09/09 03:55:26;;;;;;;;;;;;;;;12.84;69.26;100739.98;116419;1196;23544;-78
2021/09/09 03:57:56;;;;;;;26.10;23.20;;;;;;;12.76;69.55;100741.23;116414;1192;21904;-78
2021/09/09 04:00:25;;;;;;;25.00;22.50;;;;;;;12.71;69.51;100740.83;116538;1193;21955;-78
2021/09/09 04:02:59;;;;;;;26.20;23.60;;;;;;;12.70;69.50;100737.81;116283;1196;21947;-78
2021/09/09 04:05:30;;;;;;;27.30;24.70;;;;;;;12.69;69.63;100737.48;116400;1194;21875;-78
2021/09/09 04:07:59;;;;;;;26.40;23.50;;;;;;;12.68;69.70;100733.09;116439;1194;22010;-78
2021/09/09 04:10:28;;;;;;;26.20;23.60;;;;;;;12.69;69.85;100734.02;116160;1196;21901;-78
2021/09/09 04:12:58;;;;;;;26.30;23.40;;;;;;;12.66;69.78;100729.75;116537;1193;21986;-78
2021/09/09 04:15:27;;;;;;;28.80;22.70;;;;;;;12.65;70.00;100728.80;116757;1191;23734;-79
2021/09/09 04:17:56;;;;;;;26.00;23.30;;;;;;;12.64;69.94;100728.20;116567;1189;21907;-76
2021/09/09 04:20:25;;;;;;;25.30;22.70;;;;;;;12.64;70.07;100729.42;116671;1192;24233;-79
2021/09/09 04:22:55;;;;;;;27.80;23.20;;;;;;;12.66;70.13;100726.64;116586;1195;23455;-78
2021/09/09 04:25:24;;;;;;;25.30;22.60;;;;;;;12.66;70.17;100723.75;116314;1196;21887;-78
2021/09/09 04:27:53;;;;;;;25.70;23.00;;;;;;;12.67;70.20;100724.67;116232;1197;21905;-78
2021/09/09 04:30:22;;;;;;;26.90;24.10;;;;;;;12.68;70.20;100726.14;116418;1194;23554;-78
2021/09/09 04:32:52;;;;;;;26.90;23.40;;;;;;;12.68;70.16;100723.84;116290;1193;21899;-78
2021/09/09 04:35:21;;;;;;;30.30;23.80;;;;;;;12.68;70.12;100727.39;116151;1197;21903;-77
2021/09/09 04:37:50;;;;;;;33.60;29.40;;;;;;;12.68;70.25;100726.70;116241;1194;21904;-79
2021/09/09 04:40:20;;;;;;;28.50;25.60;;;;;;;12.68;70.22;100723.89;116455;1194;21891;-78
2021/09/09 04:42:49;;;;;;;27.20;24.00;;;;;;;12.68;70.30;100720.09;116604;1191;23565;-79
2021/09/09 04:45:18;;;;;;;25.90;23.20;;;;;;;12.69;70.43;100721.42;116384;1195;21895;-79
2021/09/09 04:47:47;;;;;;;27.30;23.90;;;;;;;12.70;70.44;100720.58;116775;1193;21978;-79
2021/09/09 04:50:16;;;;;;;26.00;23.40;;;;;;;12.71;70.51;100723.46;116494;1189;23451;-78
2021/09/09 04:52:46;;;;;;;28.40;23.20;;;;;;;12.74;70.52;100720.33;116509;1195;21894;-79
2021/09/09 04:55:15;;;;;;;28.60;24.70;;;;;;;12.78;70.62;100717.50;116726;1193;21898;-78
2021/09/09 04:57:44;;;;;;;31.70;26.30;;;;;;;12.79;70.63;100712.43;116640;1193;21899;-78
2021/09/09 05:00:13;;;;;;;28.70;25.70;;;;;;;12.80;70.38;100712.36;116637;1195;22036;-79
2021/09/09 05:02:42;;;;;;;26.40;23.70;;;;;;;12.81;70.57;100709.66;116479;1193;21876;-79
2021/09/09 05:05:13;;;;;;;38.50;23.90;;;;;;;12.85;70.58;100708.11;117026;1193;21859;-78
2021/09/09 05:07:43;;;;;;;29.70;23.90;;;;;;;12.88;70.43;100707.34;116670;1188;23506;-79
2021/09/09 05:10:13;;;;;;;29.90;23.70;;;;;;;12.91;70.50;100707.52;116462;1193;21902;-79
2021/09/09 05:12:42;;;;;;;25.60;22.90;;;;;;;12.94;70.56;100700.81;116523;1195;21897;-79
2021/09/09 05:15:11;;;;;;;28.30;24.60;;;;;;;12.95;70.36;100697.29;116325;1195;22000;-79
2021/09/09 05:17:41;;;;;;;28.80;24.90;;;;;;;12.97;70.28;100697.08;116606;1196;21900;-79
2021/09/09 05:20:55;;;;;;;25.80;23.00;;;;;;;13.03;70.42;100694.48;116952;1196;21941;-78
2021/09/09 05:24:10;;;;;;;26.00;22.50;;;;;;;13.08;70.70;100693.87;116483;1195;22968;-78
2021/09/09 05:26:39;;;;;;;26.60;23.70;;;;;;;13.16;70.57;100692.02;116187;1196;22496;-77
2021/09/09 05:29:08;;;;;;;27.30;23.00;;;;;;;13.25;70.27;100690.94;116552;1192;21858;-78
2021/09/09 05:31:37;;;;;;;25.90;22.30;;;;;;;13.33;70.36;100687.11;116904;1194;22949;-79
2021/09/09 05:34:06;;;;;;;24.10;21.50;;;;;;;13.39;70.19;100684.56;116635;1191;22266;-78
2021/09/09 05:36:36;;;;;;;25.60;21.30;;;;;;;13.47;70.11;100688.20;116446;1194;21874;-79
2021/09/09 05:39:06;;;;;;;22.70;20.30;;;;;;;13.54;70.08;100689.84;116754;1189;22931;-79
2021/09/09 05:41:35;;;;;;;23.50;21.00;;;;;;;13.63;69.89;100692.19;116547;1193;21904;-79
2021/09/09 05:44:04;;;;;;;21.30;19.00;;;;;;;13.72;69.79;100690.79;116400;1195;21902;-79
2021/09/09 05:46:34;;;;;;;26.30;18.50;;;;;;;13.80;69.59;100687.65;116524;1195;23983;-79
2021/09/09 05:49:03;;;;;;;23.10;20.60;;;;;;;13.89;69.34;100686.04;116492;1196;21960;-79
2021/09/09 05:51:32;;;;;;;22.30;19.90;;;;;;;14.02;69.10;100682.79;116338;1198;23545;-79
2021/09/09 05:54:02;;;;;;;21.80;19.60;;;;;;;14.13;68.89;100684.50;116379;1195;21916;-80
2021/09/09 05:56:31;;;;;;;21.60;19.40;;;;;;;14.27;68.84;100684.64;116516;1195;22903;-79
2021/09/09 05:59:01;;;;;;;20.00;17.90;;;;;;;14.41;68.53;100682.38;116589;1193;22284;-80
2021/09/09 06:01:31;;;;;;;20.60;17.40;;;;;;;14.58;68.32;100679.70;116757;1193;21880;-78
2021/09/09 06:04:01;;;;;;;22.50;18.00;;;;;;;14.78;68.17;100679.88;116571;1188;21869;-78
2021/09/09 06:06:30;;;;;;;20.50;18.30;;;;;;;15.02;67.92;100684.93;116468;1192;21906;-78
2021/09/09 06:09:00;;;;;;;19.60;17.00;;;;;;;15.29;67.71;100685.05;116334;1195;21921;-79
2021/09/09 06:11:29;;;;;;;20.10;17.20;;;;;;;15.64;67.33;100682.94;116248;1197;21923;-79
2021/09/09 06:13:58;;;;;;;18.60;16.70;;;;;;;16.01;66.56;100681.58;115947;1196;21900;-79
2021/09/09 06:16:28;;;;;;;19.50;17.60;;;;;;;16.40;65.52;100681.92;116223;1198;22627;-80
2021/09/09 06:18:58;;;;;;;25.80;17.50;;;;;;;16.78;64.30;100682.59;116376;1199;23483;-78
2021/09/09 06:21:27;;;;;;;17.60;15.80;;;;;;;17.17;63.40;100684.21;116266;1195;22959;-79
2021/09/09 06:23:56;;;;;;;18.00;15.80;;;;;;;17.59;62.36;100682.54;116418;1196;22800;-79
2021/09/09 06:26:25;;;;;;;18.10;16.30;;;;;;;18.02;61.54;100679.27;116408;1193;22872;-79
2021/09/09 06:28:56;;;;;;;19.90;17.30;;;;;;;18.46;60.64;100680.38;116774;1192;21972;-80
2021/09/09 06:31:25;;;;;;;18.70;16.70;;;;;;;18.95;59.14;100679.07;116773;1191;21894;-80
2021/09/09 06:33:55;;;;;;;17.90;16.00;;;;;;;19.31;57.45;100678.52;116405;1196;23520;-80
2021/09/09 06:36:25;;;;;;;21.10;16.50;;;;;;;19.63;56.33;100682.84;116354;1193;22642;-78
2021/09/09 06:38:54;;;;;;;17.90;15.30;;;;;;;19.88;54.54;100680.33;116194;1195;21875;-79
2021/09/09 06:41:23;;;;;;;17.30;15.60;;;;;;;20.14;54.10;100680.48;116604;1191;21906;-79
2021/09/09 06:43:52;;;;;;;17.20;15.50;;;;;;;20.42;53.35;100680.70;116712;1196;23531;-79
2021/09/09 06:46:22;;;;;;;16.00;13.80;;;;;;;20.70;52.39;100675.02;116385;1198;23620;-79
2021/09/09 06:48:53;;;;;;;15.90;14.20;;;;;;;20.92;51.51;100670.55;116433;1196;21903;-79
2021/09/09 06:51:23;;;;;;;15.90;14.20;;;;;;;21.10;50.76;100672.10;116365;1196;23558;-79
2021/09/09 06:53:52;;;;;;;16.70;13.50;;;;;;;21.28;50.02;100675.48;116380;1194;22071;-79
2021/09/09 06:56:22;;;;;;;15.10;12.90;;;;;;;21.44;49.42;100678.42;116369;1194;21905;-80
2021/09/09 06:58:52;;;;;;;13.20;11.70;;;;;;;21.61;48.87;100679.79;116621;1193;22430;-79
2021/09/09 07:01:21;;;;;;;11.90;10.80;;;;;;;21.83;48.82;100675.41;116695;1192;22968;-79
2021/09/09 07:03:51;;;;;;;16.30;12.00;;;;;;;22.11;48.26;100671.73;116449;1197;22731;-79
2021/09/09 07:06:20;;;;;;;14.20;11.70;;;;;;;22.37;47.70;100666.22;116477;1195;23355;-79
2021/09/09 07:08:50;;;;;;;12.40;11.00;;;;;;;22.67;46.99;100663.98;116402;1197;24867;-80
2021/09/09 07:11:19;;;;;;;11.70;10.60;;;;;;;22.96;45.94;100667.80;116216;1197;22865;-80
2021/09/09 07:13:49;;;;;;;19.50;11.50;;;;;;;23.20;45.46;100670.05;115949;1203;23601;-79
2021/09/09 07:16:18;;;;;;;13.40;10.20;;;;;;;23.50;44.56;100669.14;115220;1204;22748;-80
2021/09/09 07:18:47;;;;;;;11.60;10.10;;;;;;;23.58;42.82;100669.75;115414;1204;23511;-79
2021/09/09 07:21:17;;;;;;;13.80;10.90;;;;;;;23.53;42.27;100670.48;115490;1203;21981;-78
2021/09/09 07:23:47;;;;;;;11.80;9.50;;;;;;;23.59;42.74;100668.54;115930;1194;22209;-78
2021/09/09 07:26:17;;;;;;;11.50;10.30;;;;;;;23.74;42.04;100671.75;115649;1202;22629;-80
2021/09/09 07:28:45;;;;;;;11.20;9.30;;;;;;;24.00;42.27;100668.50;115966;1194;22023;-80
2021/09/09 07:31:18;;;;;;;12.10;9.70;;;;;;;24.27;41.59;100668.48;116069;1199;22944;-80
2021/09/09 07:33:47;;;;;;;13.50;9.60;;;;;;;24.42;40.71;100668.59;116326;1197;21898;-79
2021/09/09 07:36:16;;;;;;;15.80;10.00;;;;;;;24.49;40.12;100671.27;115887;1196;22240;-79
2021/09/09 07:38:46;;;;;;;11.10;9.10;;;;;;;24.57;39.69;100668.97;116107;1196;22113;-79
2021/09/09 07:41:18;;;;;;;10.40;9.30;;;;;;;24.61;39.02;100667.08;115461;1204;21991;-79
2021/09/09 07:43:47;;;;;;;12.70;9.80;;;;;;;24.65;38.90;100666.33;115507;1201;22009;-80
2021/09/09 07:46:16;;;;;;;14.50;9.60;;;;;;;24.61;38.38;100667.73;115912;1195;23462;-80
2021/09/09 07:48:45;;;;;;;12.90;10.30;;;;;;;24.63;38.74;100666.08;115884;1195;21908;-79
2021/09/09 07:51:18;;;;;;;13.20;9.50;;;;;;;24.73;38.74;100665.74;115880;1198;22009;-79
2021/09/09 07:53:47;;;;;;;15.10;9.00;;;;;;;24.98;38.90;100664.15;116033;1198;21956;-80
2021/09/09 07:56:16;;;;;;;14.70;9.40;;;;;;;25.24;38.44;100666.00;116062;1199;22000;-80
2021/09/09 07:58:49;;;;;;;13.20;8.60;;;;;;;25.46;37.84;100672.88;116357;1196;23494;-79
2021/09/09 08:01:20;;;;;;;12.10;8.80;;;;;;;25.58;37.42;100671.08;116325;1198;21916;-79
2021/09/09 08:03:52;;;;;;;12.70;9.40;;;;;;;25.74;37.25;100668.38;116368;1193;21946;-79
2021/09/09 08:06:21;;;;;;;11.90;9.70;;;;;;;25.95;37.31;100663.50;116259;1197;21988;-79
2021/09/09 08:08:50;;;;;;;16.90;9.20;;;;;;;26.14;36.45;100665.23;116327;1198;23458;-79
2021/09/09 08:11:19;;;;;;;13.70;9.50;;;;;;;26.30;36.52;100665.08;115997;1194;21882;-80
2021/09/09 08:13:52;;;;;;;15.80;8.70;;;;;;;26.45;36.00;100664.65;115859;1201;21944;-79
2021/09/09 08:16:21;;;;;;;9.80;8.80;;;;;;;26.56;35.28;100669.05;115856;1195;21894;-80
2021/09/09 08:18:51;;;;;;;9.60;7.30;;;;;;;26.53;34.46;100668.16;115975;1200;23688;-79
2021/09/09 08:21:20;;;;;;;16.90;8.00;;;;;;;26.62;35.30;100668.73;115747;1202;21895;-78
2021/09/09 08:23:49;;;;;;;11.60;8.00;;;;;;;26.80;34.80;100669.05;115480;1202;21936;-80
2021/09/09 08:26:19;;;;;;;9.00;7.20;;;;;;;26.91;34.20;100670.32;115464;1200;21905;-79
2021/09/09 08:28:49;;;;;;;12.10;6.70;;;;;;;26.92;33.33;100667.28;115734;1201;22910;-79
2021/09/09 08:31:19;;;;;;;14.70;7.00;;;;;;;26.80;32.92;100665.75;115841;1197;23502;-79
2021/09/09 08:33:49;;;;;;;10.00;6.30;;;;;;;26.83;33.63;100670.04;116318;1192;21985;-79
2021/09/09 08:36:21;;;;;;;11.90;6.40;;;;;;;26.82;32.71;100660.81;116314;1195;21913;-78
2021/09/09 08:38:51;;;;;;;13.20;6.50;;;;;;;26.85;32.88;100658.70;116439;1192;21881;-79
2021/09/09 08:41:20;;;;;;;13.10;6.20;;;;;;;26.97;32.67;100655.58;116540;1193;23350;-80
2021/09/09 08:43:50;;;;;;;10.20;5.80;;;;;;;27.03;31.79;100657.27;116628;1191;23474;-80
2021/09/09 08:46:19;;;;;;;13.50;5.90;;;;;;;26.95;31.47;100655.90;116487;1196;21919;-79
2021/09/09 08:48:49;;;;;;;8.90;5.60;;;;;;;26.96;31.94;100657.15;116304;1198;24062;-80
2021/09/09 08:51:18;;;;;;;9.80;6.20;;;;;;;27.09;32.29;100654.84;115967;1201;21932;-80
2021/09/09 08:53:48;;;;;;;10.80;6.50;;;;;;;27.30;31.86;100654.27;115806;1200;23556;-80
2021/09/09 08:56:17;;;;;;;11.90;5.80;;;;;;;27.62;31.99;100654.99;115354;1200;21913;-79
2021/09/09 08:58:47;;;;;;;12.00;5.30;;;;;;;27.84;30.70;100656.01;115617;1200;21900;-80
2021/09/09 09:01:18;;;;;;;11.20;5.30;;;;;;;27.94;30.53;100656.48;115489;1202;22038;-80
2021/09/09 09:03:54;;;;;;;7.50;5.20;;;;;;;28.02;30.13;100658.51;115452;1202;22317;-80
2021/09/09 09:06:24;;;;;;;7.10;6.20;;;;;;;28.11;30.14;100651.31;115948;1200;21920;-79
2021/09/09 09:09:09;;;;;;;10.00;5.40;;;;;;;28.23;29.61;100645.61;116299;1196;21890;-79
2021/09/09 09:11:44;;;;;;;10.80;5.50;;;;;;;28.18;29.47;100640.80;116459;1191;21894;-79
2021/09/09 09:14:18;;;;;;;9.40;5.50;;;;;;;28.19;29.39;100638.79;116496;1191;23540;-80
2021/09/09 09:16:56;;;;;;;7.70;5.30;;;;;;;28.28;29.51;100635.44;116540;1196;21885;-79
2021/09/09 09:19:33;;;;;;;9.90;5.20;;;;;;;28.54;30.10;100635.86;116243;1200;21925;-79
2021/09/09 09:22:12;;;;;;;8.10;5.00;;;;;;;28.78;29.15;100634.23;115470;1202;22170;-80
2021/09/09 09:24:51;;;;;;;9.80;5.60;;;;;;;28.80;28.90;100627.39;115512;1203;21920;-79
2021/09/09 09:27:22;;;;;;;9.40;4.90;;;;;;;29.00;28.84;100628.29;115436;1203;22626;-80
2021/09/09 09:30:03;;;;;;;10.80;5.50;;;;;;;29.13;28.69;100626.30;115511;1201;23596;-80
2021/09/09 09:32:33;;;;;;;;;;;;;;;29.28;28.08;100626.38;115443;1203;22686;-79
2021/09/09 09:35:19;;;;;;;9.50;5.10;;;;;;;29.22;27.69;100626.21;115404;1204;22054;-80
2021/09/09 09:38:07;;;;;;;6.50;5.00;;;;;;;29.29;27.79;100620.44;115225;1204;23602;-79
2021/09/09 09:40:45;;;;;;;12.80;5.20;;;;;;;29.11;26.93;100619.98;115557;1201;21896;-79
2021/09/09 09:43:16;;;;;;;9.90;5.40;;;;;;;28.91;27.33;100615.39;116340;1196;22805;-80
2021/09/09 09:45:52;;;;;;;6.40;4.80;;;;;;;28.96;27.84;100613.46;116067;1200;22970;-80
2021/09/09 09:48:26;;;;;;;11.60;4.80;;;;;;;29.00;27.27;100610.66;116137;1197;23604;-80
2021/09/09 09:50:55;;;;;;;10.40;5.30;;;;;;;28.94;26.88;100611.08;116404;1196;22610;-80
2021/09/09 09:53:25;;;;;;;8.60;4.40;;;;;;;28.81;26.47;100606.55;116396;1196;23688;-80
2021/09/09 09:55:54;;;;;;;11.70;4.20;;;;;;;28.77;26.86;100608.65;116459;1193;21899;-80
2021/09/09 09:58:24;;;;;;;9.20;4.40;;;;;;;28.86;26.57;100606.08;116478;1196;21900;-80
2021/09/09 10:00:53;;;;;;;13.50;4.30;;;;;;;28.94;26.45;100605.80;116618;1196;23001;-79
2021/09/09 10:03:24;;;;;;;8.90;4.30;;;;;;;29.12;26.75;100600.03;116797;1195;21898;-79
2021/09/09 10:05:53;;;;;;;8.30;3.90;;;;;;;29.48;26.76;100605.45;116376;1196;21972;-80
2021/09/09 10:08:23;;;;;;;12.70;5.60;;;;;;;29.69;25.92;100602.96;116404;1195;21913;-80
2021/09/09 10:10:52;;;;;;;9.00;4.30;;;;;;;29.70;24.95;100602.52;116447;1196;22710;-81
2021/09/09 10:13:22;;;;;;;5.70;4.60;;;;;;;29.66;25.46;100600.50;116329;1196;21895;-79
2021/09/09 10:15:51;;;;;;;9.40;4.70;;;;;;;29.76;25.07;100598.16;115917;1199;21921;-80
2021/09/09 10:18:21;;;;;;;10.80;4.70;;;;;;;29.73;24.73;100600.19;115448;1204;21897;-80
2021/09/09 10:20:54;;;;;;;9.30;4.80;;;;;;;29.71;24.62;100594.41;115664;1201;23366;-80
2021/09/09 10:23:26;;;;;;;8.30;4.30;;;;;;;29.65;24.36;100594.09;115522;1200;22930;-80
2021/09/09 10:25:59;;;;;;;7.30;4.30;;;;;;;29.57;24.71;100590.63;116052;1199;22927;-80
2021/09/09 10:28:37;;;;;;;6.60;4.80;;;;;;;29.66;25.12;100587.87;116071;1201;23506;-80
2021/09/09 10:31:08;;;;;;;10.60;4.80;;;;;;;29.72;24.28;100589.16;115898;1199;21943;-80
2021/09/09 10:33:47;;;;;;;11.60;4.30;;;;;;;29.59;24.02;100585.98;116161;1198;21919;-79
2021/09/09 10:36:40;;;;;;;6.60;4.60;;;;;;;29.42;24.25;100580.45;115966;1199;21894;-80
2021/09/09 10:39:21;;;;;;;8.40;4.70;;;;;;;29.40;24.69;100578.20;116147;1200;22840;-79
2021/09/09 10:41:53;;;;;;;7.80;4.80;;;;;;;29.52;24.50;100580.42;116417;1196;21993;-80
2021/09/09 10:44:28;;;;;;;6.40;3.90;;;;;;;29.55;24.83;100578.16;115934;1199;23632;-80
2021/09/09 10:46:57;;;;;;;10.60;4.70;;;;;;;29.54;24.37;100576.76;115466;1200;21892;-80
2021/09/09 10:49:28;;;;;;;8.70;4.70;;;;;;;29.32;24.46;100573.45;115584;1203;21912;-80
2021/09/09 10:52:05;;;;;;;7.40;4.90;;;;;;;29.11;25.00;100561.84;115519;1201;21926;-80
2021/09/09 10:55:06;;;;;;;12.80;4.50;;;;;;;29.00;25.20;100558.79;115452;1203;22042;-80
2021/09/09 10:57:37;;;;;;;8.60;5.20;;;;;;;28.77;25.34;100556.66;115624;1202;22018;-80
2021/09/09 11:00:08;;;;;;;9.90;5.10;;;;;;;28.55;25.75;100559.00;115764;1201;22926;-79
2021/09/09 11:02:45;;;;;;;7.90;4.80;;;;;;;28.24;25.85;100555.42;116017;1199;23462;-79
2021/09/09 11:05:15;;;;;;;5.80;4.00;;;;;;;27.84;26.30;100546.07;116354;1191;23608;-79
2021/09/09 11:07:51;;;;;;;10.30;4.50;;;;;;;27.54;26.64;100545.17;116213;1198;23552;-78
2021/09/09 11:10:38;;;;;;;6.30;4.40;;;;;;;27.36;26.96;100542.88;116484;1192;23529;-79
2021/09/09 11:13:27;;;;;;;10.10;4.80;;;;;;;27.13;27.11;100541.45;116452;1194;22896;-80
2021/09/09 11:15:56;;;;;;;8.10;4.20;;;;;;;26.88;27.46;100537.39;116286;1198;23495;-80
2021/09/09 11:18:35;;;;;;;7.00;4.40;;;;;;;26.70;27.84;100539.56;116084;1196;21953;-79
2021/09/09 11:21:06;;;;;;;12.50;4.60;;;;;;;26.61;28.15;100539.59;116478;1195;23474;-79
2021/09/09 11:23:36;;;;;;;9.00;4.80;;;;;;;26.52;28.64;100540.72;116475;1195;21896;-79